createdAt,value
2023-01-05T00:01:01.510Z,99889.31
2023-01-05T00:03:29.307Z,99890.16
2023-01-05T00:05:57.078Z,99883.88
2023-01-05T00:08:24.971Z,99885.72
2023-01-05T00:11:10.191Z,99900.22
2023-01-05T00:13:55.391Z,99903.31
2023-01-05T00:16:40.823Z,99889.69
2023-01-05T00:19:25.945Z,99889.91
2023-01-05T00:22:11.092Z,99879.84
2023-01-05T00:24:38.888Z,99891.81
2023-01-05T00:27:06.716Z,99889.69
2023-01-05T00:29:34.544Z,99906.28
2023-01-05T00:32:02.416Z,99895.38
2023-01-05T00:34:30.317Z,99892.63
2023-01-05T00:36:58.053Z,99902.72
2023-01-05T00:39:37.209Z,99902.91
2023-01-05T00:42:04.955Z,99896.38
2023-01-05T00:44:32.726Z,99891.81
2023-01-05T00:47:00.800Z,99898.09
2023-01-05T00:49:28.554Z,99896.38
2023-01-05T00:51:56.482Z,99894.72
2023-01-05T00:54:24.304Z,99911.06
2023-01-05T00:56:52.054Z,99902.91
2023-01-05T00:59:19.840Z,99900.16
2023-01-05T01:01:47.800Z,99899.34
2023-01-05T01:04:15.685Z,99900.38
2023-01-05T01:06:43.621Z,99907.50
2023-01-05T01:09:11.428Z,99916.75
2023-01-05T01:11:39.289Z,99894.06
2023-01-05T01:14:07.307Z,99901.41
2023-01-05T01:16:35.091Z,99907.91
2023-01-05T01:19:05.427Z,99893.25
2023-01-05T01:21:33.450Z,99905.19
2023-01-05T01:24:01.327Z,99911.47
2023-01-05T01:26:29.097Z,99895.31
2023-01-05T01:28:56.987Z,99909.81
2023-01-05T01:31:24.763Z,99898.03
2023-01-05T01:33:52.547Z,99908.09
2023-01-05T01:36:20.603Z,99919.84
2023-01-05T01:38:48.367Z,99903.50
2023-01-05T01:41:16.158Z,99907.28
2023-01-05T01:43:43.979Z,99898.25
2023-01-05T01:46:12.634Z,99914.63
2023-01-05T01:48:40.424Z,99911.88
2023-01-05T01:51:08.542Z,99919.22
2023-01-05T01:53:36.420Z,99907.47
2023-01-05T01:56:04.162Z,99919.22
2023-01-05T01:58:31.960Z,99906.63
2023-01-05T02:01:01.194Z,99909.34
2023-01-05T02:03:29.172Z,99910.41
2023-01-05T02:05:56.946Z,99915.63
2023-01-05T02:08:31.278Z,99920.25
2023-01-05T02:10:59.131Z,99908.50
2023-01-05T02:13:31.443Z,99918.34
2023-01-05T02:15:59.542Z,99914.78
2023-01-05T02:18:27.378Z,99906.63
2023-01-05T02:20:55.313Z,99909.34
2023-01-05T02:23:23.097Z,99906.63
2023-01-05T02:25:50.828Z,99901.38
2023-01-05T02:28:18.635Z,99901.16
2023-01-05T02:30:46.448Z,99902.88
2023-01-05T02:33:14.247Z,99908.50
2023-01-05T02:35:42.079Z,99911.41
2023-01-05T02:38:09.871Z,99902.41
2023-01-05T02:40:37.721Z,99894.88
2023-01-05T02:43:05.472Z,99900.34
2023-01-05T02:45:33.246Z,99908.69
2023-01-05T02:48:00.996Z,99898.44
2023-01-05T02:50:29.375Z,99906.84
2023-01-05T02:52:57.132Z,99907.69
2023-01-05T02:55:24.885Z,99905.13
2023-01-05T02:57:52.702Z,99912.28
2023-01-05T03:00:20.541Z,99914.16
2023-01-05T03:02:49.641Z,99917.09
2023-01-05T03:05:17.630Z,99931.16
2023-01-05T03:07:45.448Z,99922.31
2023-01-05T03:10:30.770Z,99926.09
2023-01-05T03:13:15.963Z,99922.72
2023-01-05T03:15:43.838Z,99925.66
2023-01-05T03:18:11.844Z,99942.03
2023-01-05T03:20:39.626Z,99938.44
2023-01-05T03:23:25.141Z,99928.59
2023-01-05T03:26:10.582Z,99943.88
2023-01-05T03:28:56.022Z,99939.31
2023-01-05T03:31:41.498Z,99939.47
2023-01-05T03:34:26.903Z,99942.22
2023-01-05T03:36:54.718Z,99935.09
2023-01-05T03:39:26.660Z,99945.78
2023-01-05T03:41:54.562Z,99939.47
2023-01-05T03:44:22.318Z,99948.72
2023-01-05T03:46:50.188Z,99948.50
2023-01-05T03:49:18.093Z,99954.16
2023-01-05T03:51:45.960Z,99948.72
2023-01-05T03:54:13.722Z,99961.28
2023-01-05T03:56:41.545Z,99959.41
2023-01-05T03:59:09.430Z,99955.84
2023-01-05T04:01:37.288Z,99964.84
2023-01-05T04:04:05.265Z,99960.44
2023-01-05T04:06:33.137Z,99963.19
2023-01-05T04:09:00.952Z,99962.13
2023-01-05T04:11:28.764Z,99965.06
2023-01-05T04:13:56.677Z,99974.25
2023-01-05T04:16:24.521Z,99958.75
2023-01-05T04:18:52.301Z,99966.91
2023-01-05T04:21:20.131Z,99969.28
2023-01-05T04:23:48.182Z,99974.91
2023-01-05T04:26:16.163Z,99979.72
2023-01-05T04:28:43.944Z,99970.50
2023-01-05T04:31:11.782Z,99971.53
2023-01-05T04:33:40.180Z,99972.38
2023-01-05T04:36:07.954Z,99966.31
2023-01-05T04:38:35.796Z,99970.03
2023-01-05T04:41:03.605Z,99971.75
2023-01-05T04:43:31.394Z,99961.69
2023-01-05T04:45:59.237Z,99980.75
2023-01-05T04:48:27.120Z,99977.19
2023-01-05T04:50:55.450Z,99975.31
2023-01-05T04:53:23.815Z,99979.06
2023-01-05T04:55:51.654Z,99979.06
2023-01-05T04:58:19.444Z,99981.78
2023-01-05T05:00:47.260Z,99986.41
2023-01-05T05:03:14.988Z,99983.66
2023-01-05T05:05:42.770Z,99969.22
2023-01-05T05:08:10.527Z,99970.88
2023-01-05T05:10:38.471Z,99980.09
2023-01-05T05:13:06.278Z,99977.38
2023-01-05T05:15:34.070Z,99976.72
2023-01-05T05:18:07.045Z,99977.38
2023-01-05T05:20:36.849Z,99969.41
2023-01-05T05:23:04.643Z,99994.78
2023-01-05T05:25:32.456Z,99991.19
2023-01-05T05:28:00.209Z,99991.19
2023-01-05T05:30:27.983Z,99992.25
2023-01-05T05:32:55.789Z,99998.53
2023-01-05T05:35:23.551Z,99996.84
2023-01-05T05:37:56.175Z,99996.22
2023-01-05T05:40:24.506Z,100002.72
2023-01-05T05:42:52.297Z,100002.50
2023-01-05T05:45:20.064Z,100007.75
2023-01-05T05:47:47.900Z,100014.88
2023-01-05T05:50:15.659Z,100007.34
2023-01-05T05:52:43.504Z,100013.66
2023-01-05T05:55:11.294Z,100015.72
2023-01-05T05:57:39.065Z,100026.63
2023-01-05T06:00:06.844Z,100036.69
2023-01-05T06:02:34.713Z,100024.75
2023-01-05T06:05:02.595Z,100032.94
2023-01-05T06:07:30.414Z,100035.44
2023-01-05T06:12:26.030Z,100045.69
2023-01-05T06:14:54.021Z,100036.50
2023-01-05T06:17:21.785Z,100039.22
2023-01-05T06:19:49.545Z,100042.78
2023-01-05T06:22:17.328Z,100040.91
2023-01-05T06:24:45.144Z,100038.16
2023-01-05T06:27:12.901Z,100044.47
2023-01-05T06:29:40.745Z,100050.13
2023-01-05T06:32:08.490Z,100051.78
2023-01-05T06:34:36.315Z,100059.31
2023-01-05T06:37:06.425Z,100055.56
2023-01-05T06:39:34.216Z,100068.16
2023-01-05T06:42:02.038Z,100073.59
2023-01-05T06:44:29.782Z,100073.59
2023-01-05T06:46:57.581Z,100077.38
2023-01-05T06:49:25.324Z,100078.41
2023-01-05T06:51:53.235Z,100087.44
2023-01-05T06:54:21.073Z,100084.72
2023-01-05T06:56:48.932Z,100090.34
2023-01-05T06:59:16.687Z,100094.31
2023-01-05T07:01:44.522Z,100094.31
2023-01-05T07:04:12.383Z,100097.84
2023-01-05T07:06:40.191Z,100103.53
2023-01-05T07:09:07.971Z,100103.53
2023-01-05T07:11:35.756Z,100101.81
2023-01-05T07:14:03.514Z,100114.59
2023-01-05T07:16:31.396Z,100113.75
2023-01-05T07:18:59.241Z,100112.94
2023-01-05T07:21:27.062Z,100107.47
2023-01-05T07:23:57.658Z,100113.75
2023-01-05T07:26:25.418Z,100123.00
2023-01-05T07:28:53.157Z,100130.13
2023-01-05T07:31:21.024Z,100137.44
2023-01-05T07:33:48.839Z,100140.19
2023-01-05T07:36:16.892Z,100135.56
2023-01-05T07:38:46.168Z,100146.63
2023-01-05T07:41:13.976Z,100139.34
2023-01-05T07:43:41.809Z,100152.09
2023-01-05T07:46:09.680Z,100154.81
2023-01-05T07:48:37.499Z,100161.13
2023-01-05T07:51:05.609Z,100164.03
2023-01-05T07:53:38.113Z,100172.88
2023-01-05T07:56:11.278Z,100173.88
2023-01-05T07:58:39.010Z,100173.88
2023-01-05T08:01:06.877Z,100172.03
2023-01-05T08:03:34.784Z,100182.06
2023-01-05T08:06:02.611Z,100192.97
2023-01-05T08:08:30.313Z,100193.84
2023-01-05T08:10:58.122Z,100196.75
2023-01-05T08:13:43.403Z,100193.16
2023-01-05T08:16:11.178Z,100199.63
2023-01-05T08:18:38.993Z,100192.13
2023-01-05T08:21:08.628Z,100203.03
2023-01-05T08:23:36.322Z,100207.63
2023-01-05T08:26:04.069Z,100202.19
2023-01-05T08:28:35.516Z,100209.31
2023-01-05T08:31:03.559Z,100214.75
2023-01-05T08:33:31.379Z,100213.75
2023-01-05T08:35:59.139Z,100209.31
2023-01-05T08:38:26.884Z,100222.09
2023-01-05T08:40:54.623Z,100223.16
2023-01-05T08:43:22.365Z,100223.16
2023-01-05T08:45:50.806Z,100229.44
2023-01-05T08:48:18.655Z,100226.88
2023-01-05T08:50:46.427Z,100230.66
2023-01-05T08:53:14.166Z,100236.09
2023-01-05T08:55:41.967Z,100231.50
2023-01-05T08:58:09.692Z,100232.53
2023-01-05T09:00:37.473Z,100228.97
2023-01-05T09:03:05.378Z,100244.28
2023-01-05T09:05:33.188Z,100247.19
2023-01-05T09:08:03.767Z,100255.56
2023-01-05T09:10:31.518Z,100270.03
2023-01-05T09:12:59.265Z,100266.25
2023-01-05T09:15:27.022Z,100273.59
2023-01-05T09:17:54.789Z,100289.94
2023-01-05T09:20:22.619Z,100279.88
2023-01-05T09:22:50.455Z,100277.16
2023-01-05T09:25:18.184Z,100285.31
2023-01-05T09:27:45.885Z,100277.16
2023-01-05T09:30:15.698Z,100287.03
2023-01-05T09:32:43.460Z,100283.47
2023-01-05T09:35:11.233Z,100288.91
2023-01-05T09:37:38.977Z,100293.50
2023-01-05T09:40:06.798Z,100299.81
2023-01-05T09:42:36.483Z,100296.06
2023-01-05T09:45:04.298Z,100296.88
2023-01-05T09:47:32.166Z,100303.19
2023-01-05T09:49:59.922Z,100303.19
2023-01-05T09:52:29.429Z,100297.09
2023-01-05T09:55:00.673Z,100312.41
2023-01-05T09:57:28.417Z,100311.34
2023-01-05T09:59:56.154Z,100326.84
2023-01-05T10:02:24.108Z,100317.66
2023-01-05T10:04:51.948Z,100323.97
2023-01-05T10:07:19.795Z,100323.97
2023-01-05T10:09:47.557Z,100321.22
2023-01-05T10:12:32.611Z,100311.34
2023-01-05T10:15:00.378Z,100314.06
2023-01-05T10:17:41.210Z,100311.19
2023-01-05T10:20:09.929Z,100312.22
2023-01-05T10:22:38.985Z,100309.50
2023-01-05T10:25:06.810Z,100317.66
2023-01-05T10:27:34.603Z,100319.53
2023-01-05T10:30:02.373Z,100323.13
2023-01-05T10:32:30.083Z,100319.53
2023-01-05T10:34:57.900Z,100317.00
2023-01-05T10:37:25.743Z,100329.78
2023-01-05T10:39:56.521Z,100312.41
2023-01-05T10:42:24.670Z,100336.91
2023-01-05T10:44:52.415Z,100323.13
2023-01-05T10:47:20.226Z,100327.53
2023-01-05T10:49:48.003Z,100338.44
2023-01-05T10:52:15.774Z,100338.59
2023-01-05T10:54:43.479Z,100335.03
2023-01-05T10:57:11.205Z,100337.09
2023-01-05T10:59:39.026Z,100341.53
2023-01-05T11:02:06.867Z,100348.66
2023-01-05T11:04:35.820Z,100338.81
2023-01-05T11:07:03.874Z,100343.41
2023-01-05T11:09:31.645Z,100340.69
2023-01-05T11:11:59.419Z,100341.53
2023-01-05T11:14:27.158Z,100344.25
2023-01-05T11:16:54.922Z,100349.69
2023-01-05T11:19:22.705Z,100345.25
2023-01-05T11:21:50.429Z,100354.09
2023-01-05T11:24:18.189Z,100357.88
2023-01-05T11:26:45.921Z,100352.59
2023-01-05T11:29:14.407Z,100358.06
2023-01-05T11:31:43.107Z,100360.97
2023-01-05T11:34:10.863Z,100352.81
2023-01-05T11:36:38.871Z,100361.63
2023-01-05T11:39:06.610Z,100358.06
2023-01-05T11:41:34.995Z,100368.78
2023-01-05T11:44:03.284Z,100379.47
2023-01-05T11:46:31.172Z,100376.94
2023-01-05T11:48:59.034Z,100381.34
2023-01-05T11:51:27.852Z,100380.50
2023-01-05T11:53:55.648Z,100384.06
2023-01-05T11:56:23.349Z,100392.06
2023-01-05T11:58:51.372Z,100391.25
2023-01-05T12:01:21.772Z,100396.47
2023-01-05T12:03:52.921Z,100401.94
2023-01-05T12:06:23.185Z,100402.97
2023-01-05T12:08:54.151Z,100396.47
2023-01-05T12:11:22.103Z,100406.72
2023-01-05T12:13:51.297Z,100408.44
2023-01-05T12:16:19.019Z,100409.44
2023-01-05T12:18:47.164Z,100405.03
2023-01-05T12:21:15.051Z,100410.50
2023-01-05T12:23:42.872Z,100397.03
2023-01-05T12:26:10.651Z,100409.66
2023-01-05T12:28:42.294Z,100414.25
2023-01-05T12:34:02.275Z,100418.38
2023-01-05T12:36:32.066Z,100426.72
2023-01-05T12:38:59.782Z,100436.78
2023-01-05T12:41:27.529Z,100434.72
2023-01-05T12:43:55.288Z,100427.59
2023-01-05T12:46:23.525Z,100434.72
2023-01-05T12:48:51.747Z,100435.75
2023-01-05T12:51:19.517Z,100443.94
2023-01-05T12:53:47.458Z,100439.50
2023-01-05T12:56:15.271Z,100454.63
2023-01-05T12:58:43.094Z,100454.84
2023-01-05T13:01:10.970Z,100453.13
2023-01-05T13:03:39.169Z,100461.28
2023-01-05T13:06:10.028Z,100456.88
2023-01-05T13:08:37.850Z,100469.47
2023-01-05T13:11:05.710Z,100474.06
2023-01-05T13:13:39.591Z,100468.63
2023-01-05T13:16:07.402Z,100474.91
2023-01-05T13:18:35.175Z,100484.97
2023-01-05T13:21:03.051Z,100484.97
2023-01-05T13:23:30.777Z,100478.69
2023-01-05T13:25:58.506Z,100496.72
2023-01-05T13:28:28.708Z,100495.88
2023-01-05T13:30:58.677Z,100489.59
2023-01-05T13:33:26.452Z,100492.97
2023-01-05T13:35:54.213Z,100499.25
2023-01-05T13:38:21.941Z,100503.88
2023-01-05T13:40:49.716Z,100503.88
2023-01-05T13:43:17.475Z,100507.59
2023-01-05T13:45:45.211Z,100515.78
2023-01-05T13:48:13.266Z,100509.31
2023-01-05T13:50:41.080Z,100510.16
2023-01-05T13:53:08.761Z,100520.22
2023-01-05T13:55:36.512Z,100514.09
2023-01-05T13:58:04.394Z,100523.97
2023-01-05T14:00:32.183Z,100520.22
2023-01-05T14:03:00.258Z,100529.41
2023-01-05T14:05:27.954Z,100544.75
2023-01-05T14:07:55.758Z,100544.75
2023-01-05T14:10:23.456Z,100545.59
2023-01-05T14:12:51.188Z,100551.88
2023-01-05T14:15:18.890Z,100553.75
2023-01-05T14:17:46.658Z,100564.81
2023-01-05T14:20:14.328Z,100575.72
2023-01-05T14:22:42.466Z,100573.84
2023-01-05T14:25:10.207Z,100575.06
2023-01-05T14:27:37.931Z,100573.34
2023-01-05T14:30:05.673Z,100586.28
2023-01-05T14:32:33.449Z,100594.66
2023-01-05T14:35:01.242Z,100595.88
2023-01-05T14:37:28.985Z,100600.63
2023-01-05T14:40:04.128Z,100606.94
2023-01-05T14:42:36.910Z,100613.22
2023-01-05T14:45:06.770Z,100615.47
2023-01-05T14:47:34.645Z,100610.66
2023-01-05T14:50:04.973Z,100634.88
2023-01-05T14:52:32.673Z,100641.56
2023-01-05T14:55:05.863Z,100639.41
2023-01-05T14:57:40.411Z,100632.53
2023-01-05T15:00:08.735Z,100651.28
2023-01-05T15:02:36.624Z,100640.78
2023-01-05T15:05:04.743Z,100648.81
2023-01-05T15:07:32.473Z,100659.47
2023-01-05T15:10:00.249Z,100668.31
2023-01-05T15:12:27.984Z,100659.47
2023-01-05T15:14:55.741Z,100663.75
2023-01-05T15:17:23.485Z,100661.84
2023-01-05T15:19:51.213Z,100666.59
2023-01-05T15:22:37.159Z,100673.31
2023-01-05T15:25:05.627Z,100663.78
2023-01-05T15:27:33.525Z,100673.63
2023-01-05T15:30:02.246Z,100675.38
2023-01-05T15:32:31.214Z,100670.69
2023-01-05T15:34:58.980Z,100681.63
2023-01-05T15:37:26.752Z,100686.25
2023-01-05T15:39:54.550Z,100690.06
2023-01-05T15:42:23.336Z,100681.94
2023-01-05T15:44:51.987Z,100696.31
2023-01-05T15:47:19.724Z,100697.69
2023-01-05T15:49:47.431Z,100699.97
2023-01-05T15:52:15.185Z,100701.91
2023-01-05T15:54:42.885Z,100698.34
2023-01-05T15:57:10.639Z,100697.25
2023-01-05T15:59:38.375Z,100701.38
2023-01-05T16:02:06.135Z,100698.59
2023-01-05T16:04:34.311Z,100704.25
2023-01-05T16:07:02.300Z,100706.06
2023-01-05T16:09:30.105Z,100718.78
2023-01-05T16:11:58.303Z,100709.91
2023-01-05T16:14:28.744Z,100713.94
2023-01-05T16:16:56.590Z,100711.34
2023-01-05T16:19:24.343Z,100715.72
2023-01-05T16:21:52.137Z,100714.38
2023-01-05T16:24:19.853Z,100721.28
2023-01-05T16:26:47.576Z,100720.09
2023-01-05T16:29:15.289Z,100731.13
2023-01-05T16:31:44.951Z,100730.63
2023-01-05T16:34:12.700Z,100742.31
2023-01-05T16:36:40.358Z,100736.50
2023-01-05T16:39:08.120Z,100725.50
2023-01-05T16:41:55.804Z,100744.41
2023-01-05T16:44:23.539Z,100741.81
2023-01-05T16:46:51.268Z,100764.75
2023-01-05T16:49:18.993Z,100762.22
2023-01-05T16:51:47.657Z,100753.81
2023-01-05T16:54:15.567Z,100756.53
2023-01-05T16:56:43.259Z,100750.22
2023-01-05T16:59:11.097Z,100753.63
2023-01-05T17:01:38.846Z,100751.31
2023-01-05T17:04:06.607Z,100759.19
2023-01-05T17:06:34.371Z,100751.97
2023-01-05T17:09:02.191Z,100770.59
2023-01-05T17:11:30.062Z,100769.81
2023-01-05T17:13:57.847Z,100768.09
2023-01-05T17:16:25.790Z,100771.06
2023-01-05T17:18:53.556Z,100781.78
2023-01-05T17:21:21.380Z,100788.91
2023-01-05T17:23:49.147Z,100787.16
2023-01-05T17:26:17.000Z,100784.34
2023-01-05T17:28:44.904Z,100782.81
2023-01-05T17:33:45.311Z,100800.09
2023-01-05T17:36:13.009Z,100801.00
2023-01-05T17:38:40.726Z,100813.16
2023-01-05T17:41:08.492Z,100803.91
2023-01-05T17:43:36.237Z,100813.34
2023-01-05T17:46:04.113Z,100804.44
2023-01-05T17:48:31.887Z,100813.78
2023-01-05T17:51:00.406Z,100810.50
2023-01-05T17:53:28.210Z,100817.94
2023-01-05T17:55:55.967Z,100825.19
2023-01-05T17:58:26.489Z,100820.69
2023-01-05T18:00:55.119Z,100825.22
2023-01-05T18:03:22.935Z,100830.41
2023-01-05T18:05:51.353Z,100826.72
2023-01-05T18:08:19.290Z,100828.91
2023-01-05T18:10:47.697Z,100826.91
2023-01-05T18:13:18.083Z,100835.63
2023-01-05T18:15:50.787Z,100835.56
2023-01-05T18:18:20.594Z,100842.91
2023-01-05T18:20:51.067Z,100842.34
2023-01-05T18:23:18.842Z,100846.91
2023-01-05T18:25:46.679Z,100848.88
2023-01-05T18:28:14.410Z,100856.84
2023-01-05T18:30:42.293Z,100857.94
2023-01-05T18:35:43.660Z,100862.84
2023-01-05T18:38:11.769Z,100852.22
2023-01-05T18:40:39.559Z,100864.72
2023-01-05T18:43:07.455Z,100857.69
2023-01-05T18:45:39.743Z,100854.13
2023-01-05T18:48:07.969Z,100866.72
2023-01-05T18:50:36.591Z,100865.00
2023-01-05T18:53:04.469Z,100860.22
2023-01-05T18:55:34.313Z,100865.91
2023-01-05T18:58:02.154Z,100872.19
2023-01-05T19:00:30.940Z,100869.91
2023-01-05T19:02:58.811Z,100864.19
2023-01-05T19:05:26.573Z,100882.84
2023-01-05T19:07:55.609Z,100884.09
2023-01-05T19:10:23.395Z,100881.13
2023-01-05T19:12:51.139Z,100878.53
2023-01-05T19:15:18.955Z,100872.66
2023-01-05T19:17:46.740Z,100875.47
2023-01-05T19:20:14.648Z,100867.63
2023-01-05T19:22:45.084Z,100883.63
2023-01-05T19:25:13.337Z,100879.75
2023-01-05T19:27:41.178Z,100882.00
2023-01-05T19:30:09.012Z,100887.34
2023-01-05T19:32:37.169Z,100889.13
2023-01-05T19:35:06.155Z,100887.31
2023-01-05T19:37:33.942Z,100874.97
2023-01-05T19:40:02.751Z,100882.63
2023-01-05T19:42:30.699Z,100884.59
2023-01-05T19:44:58.625Z,100891.66
2023-01-05T19:47:26.473Z,100883.28
2023-01-05T19:49:54.259Z,100886.09
2023-01-05T19:52:22.058Z,100877.72
2023-01-05T19:54:49.860Z,100877.59
2023-01-05T19:57:17.695Z,100877.50
2023-01-05T19:59:45.503Z,100884.59
2023-01-05T20:02:13.290Z,100892.75
2023-01-05T20:04:42.534Z,100893.50
2023-01-05T20:07:10.318Z,100894.16
2023-01-05T20:09:38.185Z,100897.25
2023-01-05T20:12:14.388Z,100897.19
2023-01-05T20:14:46.965Z,100906.38
2023-01-05T20:17:14.733Z,100912.97
2023-01-05T20:19:42.587Z,100899.41
2023-01-05T20:22:13.797Z,100905.84
2023-01-05T20:24:42.181Z,100907.84
2023-01-05T20:27:09.951Z,100909.63
2023-01-05T20:29:37.739Z,100912.44
2023-01-05T20:32:05.549Z,100909.78
2023-01-05T20:34:34.967Z,100908.84
2023-01-05T20:37:04.077Z,100908.75
2023-01-05T20:39:31.923Z,100909.47
2023-01-05T20:42:04.826Z,100910.06
2023-01-05T20:44:32.995Z,100906.16
2023-01-05T20:47:02.294Z,100914.09
2023-01-05T20:49:30.098Z,100903.72
2023-01-05T20:51:57.948Z,100911.25
2023-01-05T20:54:26.900Z,100915.38
2023-01-05T20:56:54.877Z,100914.91
2023-01-05T20:59:23.361Z,100923.66
2023-01-05T21:01:51.457Z,100926.75
2023-01-05T21:04:19.261Z,100916.22
2023-01-05T21:06:47.072Z,100916.59
2023-01-05T21:09:14.924Z,100922.34
2023-01-05T21:11:42.725Z,100930.91
2023-01-05T21:14:12.411Z,100927.53
2023-01-05T21:16:40.460Z,100925.16
2023-01-05T21:19:08.761Z,100929.97
2023-01-05T21:21:37.488Z,100932.03
2023-01-05T21:24:07.816Z,100921.47
2023-01-05T21:26:35.682Z,100927.97
2023-01-05T21:29:05.700Z,100931.91
2023-01-05T21:31:33.487Z,100931.22
2023-01-05T21:34:01.469Z,100933.97
2023-01-05T21:36:29.271Z,100932.13
2023-01-05T21:39:00.962Z,100933.19
2023-01-05T21:41:48.576Z,100939.69
2023-01-05T21:44:16.312Z,100929.78
2023-01-05T21:46:44.120Z,100930.13
2023-01-05T21:49:11.967Z,100931.81
2023-01-05T21:51:57.216Z,100927.56
2023-01-05T21:54:42.448Z,100926.09
2023-01-05T21:57:10.413Z,100911.09
2023-01-05T21:59:38.189Z,100924.75
2023-01-05T22:02:05.996Z,100921.16
2023-01-05T22:04:33.753Z,100924.06
2023-01-05T22:07:02.723Z,100921.69
2023-01-05T22:09:30.529Z,100920.00
2023-01-05T22:11:58.245Z,100930.06
2023-01-05T22:14:25.967Z,100929.22
2023-01-05T22:16:53.806Z,100943.91
2023-01-05T22:19:21.538Z,100935.88
2023-01-05T22:21:49.479Z,100936.91
2023-01-05T22:24:17.208Z,100927.00
2023-01-05T22:26:45.070Z,100928.22
2023-01-05T22:29:12.804Z,100924.84
2023-01-05T22:31:40.666Z,100937.81
2023-01-05T22:34:08.408Z,100933.56
2023-01-05T22:36:36.119Z,100931.00
2023-01-05T22:39:03.993Z,100934.09
2023-01-05T22:41:31.758Z,100932.41
2023-01-05T22:43:59.593Z,100934.44
2023-01-05T22:46:27.348Z,100939.91
2023-01-05T22:48:55.093Z,100937.53
2023-01-05T22:51:22.784Z,100938.38
2023-01-05T22:53:50.576Z,100932.09
2023-01-05T22:56:18.319Z,100935.81
2023-01-05T22:58:46.034Z,100933.09
2023-01-05T23:01:13.817Z,100926.09
2023-01-05T23:03:41.587Z,100928.69
2023-01-05T23:06:09.371Z,100924.25
2023-01-05T23:08:38.219Z,100921.66
2023-01-05T23:11:05.990Z,100923.56
2023-01-05T23:13:33.768Z,100915.53
2023-01-05T23:16:01.467Z,100906.50
2023-01-05T23:18:29.271Z,100921.00
2023-01-05T23:20:57.026Z,100923.72
2023-01-05T23:23:24.766Z,100926.44
2023-01-05T23:25:52.609Z,100922.03
2023-01-05T23:28:20.506Z,100918.47
2023-01-05T23:30:48.265Z,100921.00
2023-01-05T23:33:16.151Z,100919.31
2023-01-05T23:35:43.944Z,100917.59
2023-01-05T23:38:11.744Z,100915.91
2023-01-05T23:40:39.511Z,100906.88
2023-01-05T23:43:07.465Z,100908.56
2023-01-05T23:45:35.267Z,100911.28
2023-01-05T23:48:03.055Z,100908.75
2023-01-05T23:50:30.822Z,100904.13
2023-01-05T23:52:58.580Z,100895.28
2023-01-05T23:55:26.442Z,100898.00
2023-01-05T23:57:54.132Z,100892.56
